Time;durP1;ratioP1;P1;durP2;ratioP2;P2;SDS_P1;SDS_P2;PMS_P1;PMS_P2;Temp;Humidity;BMP_temperature;BMP_pressure;BME280_temperature;BME280_humidity;BME280_pressure;Samples;Min_cycle;Max_cycle;Signal;HPM_P1;HPM_P2
2023/10/05 00:01:10;;;;;;;30.90;6.60;;;;;;;;;;5060461;28;20067;-67
2023/10/05 00:03:38;;;;;;;32.05;6.28;;;;;;;;;;5056278;28;20458;-67
2023/10/05 00:06:11;;;;;;;25.83;5.82;;;;;;;;;;5069744;28;20071;-67
2023/10/05 00:08:36;;;;;;;19.90;5.93;;;;;;;;;;5053407;28;20017;-67
2023/10/05 00:11:01;;;;;;;17.83;6.85;;;;;;;;;;5053087;28;20536;-67
2023/10/05 00:13:32;;;;;;;18.70;6.22;;;;;;;;;;5042618;28;20029;-67
2023/10/05 00:15:57;;;;;;;23.05;6.22;;;;;;;;;;5092725;28;20036;-66
2023/10/05 00:18:23;;;;;;;23.45;5.75;;;;;;;;;;5063106;28;20474;-66
2023/10/05 00:20:48;;;;;;;17.75;5.60;;;;;;;;;;5076555;28;20064;-67
2023/10/05 00:23:14;;;;;;;19.85;4.65;;;;;;;;;;5087503;28;20398;-66
2023/10/05 00:25:39;;;;;;;14.52;4.50;;;;;;;;;;5085614;28;20095;-66
2023/10/05 00:28:09;;;;;;;14.25;6.07;;;;;;;;;;5073244;28;20028;-66
2023/10/05 00:30:35;;;;;;;22.60;6.57;;;;;;;;;;5072690;28;20032;-66
2023/10/05 00:33:01;;;;;;;29.65;5.25;;;;;;;;;;5072877;28;20028;-66
2023/10/05 00:35:29;;;;;;;18.85;5.25;;;;;;;;;;5072546;28;20048;-66
2023/10/05 00:38:12;;;;;;;19.15;5.82;;;;;;;;;;5070813;28;20024;-67
2023/10/05 00:40:42;;;;;;;19.92;4.60;;;;;;;;;;5038089;28;20036;-66
2023/10/05 00:43:29;;;;;;;20.73;5.05;;;;;;;;;;5068806;28;20068;-67
2023/10/05 00:45:57;;;;;;;31.95;6.25;;;;;;;;;;5057698;28;20042;-66
2023/10/05 00:48:40;;;;;;;15.68;4.10;;;;;;;;;;5056845;28;20389;-67
2023/10/05 00:51:26;;;;;;;19.83;6.53;;;;;;;;;;5071365;28;20078;-67
2023/10/05 00:53:53;;;;;;;20.45;5.78;;;;;;;;;;5048180;28;20016;-66
2023/10/05 00:56:22;;;;;;;20.13;4.95;;;;;;;;;;5075536;28;20017;-66
2023/10/05 00:58:50;;;;;;;24.30;5.13;;;;;;;;;;5076167;28;20027;-67
2023/10/05 01:07:49;;;;;;;23.90;6.38;;;;;;;;;;5013558;28;20033;-66
2023/10/05 01:12:51;;;;;;;21.88;4.55;;;;;;;;;;5038147;28;20403;-66
2023/10/05 01:15:30;;;;;;;17.13;5.78;;;;;;;;;;5056631;28;20542;-66
2023/10/05 01:17:56;;;;;;;25.30;5.88;;;;;;;;;;5056525;28;20033;-66
2023/10/05 01:22:47;;;;;;;23.77;6.68;;;;;;;;;;5057013;28;20543;-66
2023/10/05 01:25:16;;;;;;;19.20;5.57;;;;;;;;;;5056456;28;20032;-66
2023/10/05 01:27:45;;;;;;;19.92;4.60;;;;;;;;;;5056399;28;20398;-66
2023/10/05 01:30:14;;;;;;;17.02;4.53;;;;;;;;;;5055835;28;20017;-66
2023/10/05 01:32:43;;;;;;;25.95;4.82;;;;;;;;;;5056509;28;20096;-66
2023/10/05 01:35:12;;;;;;;22.63;4.90;;;;;;;;;;5038401;28;20020;-66
2023/10/05 01:37:38;;;;;;;22.48;5.53;;;;;;;;;;5056029;28;20401;-66
2023/10/05 01:40:12;;;;;;;26.10;6.60;;;;;;;;;;5056452;28;20048;-67
2023/10/05 01:42:43;;;;;;;18.15;4.95;;;;;;;;;;5055534;28;20021;-67
2023/10/05 01:45:10;;;;;;;18.13;4.93;;;;;;;;;;5056433;28;20029;-69
2023/10/05 01:47:35;;;;;;;20.88;4.47;;;;;;;;;;5038556;28;20028;-69
2023/10/05 01:50:00;;;;;;;10.55;4.25;;;;;;;;;;5055999;28;20025;-69
2023/10/05 01:52:26;;;;;;;24.00;4.80;;;;;;;;;;5055707;28;20029;-69
2023/10/05 01:54:53;;;;;;;14.02;3.80;;;;;;;;;;5055944;28;20024;-69
2023/10/05 01:57:20;;;;;;;14.18;3.88;;;;;;;;;;5055299;28;20029;-69
2023/10/05 01:59:45;;;;;;;22.65;4.57;;;;;;;;;;5055543;28;20021;-69
2023/10/05 02:02:12;;;;;;;16.05;3.28;;;;;;;;;;5055862;28;20033;-69
2023/10/05 02:04:44;;;;;;;12.95;4.03;;;;;;;;;;5055933;28;20056;-69
2023/10/05 02:07:11;;;;;;;9.73;3.30;;;;;;;;;;5055422;28;20486;-69
2023/10/05 02:09:38;;;;;;;6.80;2.78;;;;;;;;;;5038058;28;20044;-69
2023/10/05 02:12:06;;;;;;;4.20;2.22;;;;;;;;;;5055288;28;20047;-69
2023/10/05 02:14:43;;;;;;;9.27;2.28;;;;;;;;;;5055324;28;20371;-69
2023/10/05 02:17:10;;;;;;;14.70;2.75;;;;;;;;;;5055487;28;20388;-69
2023/10/05 02:19:37;;;;;;;14.63;2.50;;;;;;;;;;5071041;23;20017;-72
2023/10/05 02:22:10;;;;;;;5.03;2.05;;;;;;;;;;5040419;28;20038;-72
2023/10/05 02:24:36;;;;;;;9.05;2.03;;;;;;;;;;5042246;28;20478;-72
2023/10/05 02:29:29;;;;;;;6.13;1.92;;;;;;;;;;5074967;28;20067;-72
2023/10/05 02:34:20;;;;;;;6.07;2.70;;;;;;;;;;5053153;28;20025;-72
2023/10/05 02:36:46;;;;;;;4.65;1.70;;;;;;;;;;5084616;28;20501;-72
2023/10/05 02:39:11;;;;;;;6.10;1.88;;;;;;;;;;5077067;28;20016;-72
2023/10/05 02:41:39;;;;;;;11.27;1.80;;;;;;;;;;5094810;28;20023;-72
2023/10/05 02:44:17;;;;;;;9.45;2.10;;;;;;;;;;5094813;28;20028;-72
2023/10/05 02:46:44;;;;;;;9.02;3.10;;;;;;;;;;5075753;28;20031;-72
2023/10/05 02:49:09;;;;;;;9.02;2.28;;;;;;;;;;5057082;28;20028;-72
2023/10/05 02:51:35;;;;;;;10.43;2.22;;;;;;;;;;5074167;28;20028;-72
2023/10/05 02:54:06;;;;;;;8.82;2.53;;;;;;;;;;5056837;28;20020;-72
2023/10/05 02:56:33;;;;;;;14.10;2.30;;;;;;;;;;5075462;28;20078;-72
2023/10/05 02:59:02;;;;;;;6.43;2.80;;;;;;;;;;5074824;28;20020;-72
2023/10/05 03:01:32;;;;;;;6.38;2.80;;;;;;;;;;5074233;28;20024;-72
2023/10/05 03:03:57;;;;;;;7.53;2.63;;;;;;;;;;5057388;28;20020;-72
2023/10/05 03:06:23;;;;;;;4.40;1.92;;;;;;;;;;5075083;28;20103;-72
2023/10/05 03:08:49;;;;;;;10.25;2.72;;;;;;;;;;5075315;28;20016;-72
2023/10/05 03:11:15;;;;;;;10.05;2.13;;;;;;;;;;5055872;28;20111;-72
2023/10/05 03:13:41;;;;;;;8.02;2.10;;;;;;;;;;5074432;28;20070;-72
2023/10/05 03:16:10;;;;;;;9.73;1.85;;;;;;;;;;5056630;28;20016;-72
2023/10/05 03:18:41;;;;;;;11.30;1.83;;;;;;;;;;5053407;28;20090;-72
2023/10/05 03:21:14;;;;;;;9.13;1.50;;;;;;;;;;5055773;28;20111;-72
2023/10/05 03:23:42;;;;;;;7.45;2.63;;;;;;;;;;5056043;28;20437;-72
2023/10/05 03:26:10;;;;;;;8.40;1.75;;;;;;;;;;5073863;28;20402;-72
2023/10/05 03:28:35;;;;;;;8.65;1.90;;;;;;;;;;5055178;28;20026;-72
2023/10/05 03:31:06;;;;;;;13.45;2.60;;;;;;;;;;5073904;28;20035;-72
2023/10/05 03:33:35;;;;;;;5.18;1.90;;;;;;;;;;5041524;28;20077;-72
2023/10/05 03:36:06;;;;;;;6.45;2.15;;;;;;;;;;5086209;28;20115;-72
2023/10/05 03:38:33;;;;;;;6.28;2.08;;;;;;;;;;5081841;28;20026;-72
2023/10/05 03:41:04;;;;;;;3.75;1.83;;;;;;;;;;5073132;28;20526;-72
2023/10/05 03:43:31;;;;;;;5.25;1.73;;;;;;;;;;5056123;28;20029;-72
2023/10/05 03:45:56;;;;;;;11.60;2.03;;;;;;;;;;5073748;28;20467;-72
2023/10/05 03:48:22;;;;;;;9.65;2.25;;;;;;;;;;5035747;28;20044;-72
2023/10/05 03:50:47;;;;;;;5.22;1.88;;;;;;;;;;5053624;28;20505;-72
2023/10/05 03:53:15;;;;;;;10.75;2.90;;;;;;;;;;5060057;28;20021;-72
2023/10/05 03:55:41;;;;;;;11.98;3.60;;;;;;;;;;5054943;28;20025;-72
2023/10/05 03:58:07;;;;;;;6.75;1.67;;;;;;;;;;5073430;28;20389;-72
2023/10/05 04:00:35;;;;;;;7.03;1.98;;;;;;;;;;5055773;28;20024;-72
2023/10/05 04:03:02;;;;;;;8.82;1.90;;;;;;;;;;5073200;28;20024;-72
2023/10/05 04:05:27;;;;;;;9.80;2.33;;;;;;;;;;5035591;28;20171;-72
2023/10/05 04:07:54;;;;;;;17.15;2.20;;;;;;;;;;5052916;28;20075;-72
2023/10/05 04:10:23;;;;;;;9.52;2.20;;;;;;;;;;5053018;28;20028;-72
2023/10/05 04:12:51;;;;;;;9.57;2.92;;;;;;;;;;5049736;28;20028;-72
2023/10/05 04:15:18;;;;;;;7.65;2.08;;;;;;;;;;5055577;28;20028;-72
2023/10/05 04:17:45;;;;;;;7.70;1.50;;;;;;;;;;5073119;28;20400;-72
2023/10/05 04:20:30;;;;;;;12.27;2.38;;;;;;;;;;5055158;28;20081;-72
2023/10/05 04:22:56;;;;;;;12.73;2.42;;;;;;;;;;5057104;28;20078;-72
2023/10/05 04:25:21;;;;;;;7.07;2.03;;;;;;;;;;5055037;28;20032;-72
2023/10/05 04:27:46;;;;;;;8.00;2.15;;;;;;;;;;5054837;28;20028;-72
2023/10/05 04:30:17;;;;;;;11.80;2.45;;;;;;;;;;5071609;28;20556;-72
2023/10/05 04:32:43;;;;;;;9.30;2.05;;;;;;;;;;5055639;28;20171;-72
2023/10/05 04:35:16;;;;;;;7.07;2.03;;;;;;;;;;5055009;28;20024;-72
2023/10/05 04:37:43;;;;;;;12.65;2.50;;;;;;;;;;5039128;28;20031;-72
2023/10/05 04:40:09;;;;;;;10.30;2.47;;;;;;;;;;5038478;28;20107;-72
2023/10/05 04:42:34;;;;;;;7.47;2.25;;;;;;;;;;5054448;28;20103;-72
2023/10/05 04:45:01;;;;;;;7.63;1.90;;;;;;;;;;5054843;28;20074;-72
2023/10/05 04:47:27;;;;;;;7.55;2.53;;;;;;;;;;5072501;28;20490;-72
2023/10/05 04:49:53;;;;;;;11.90;1.83;;;;;;;;;;5054963;28;20060;-72
2023/10/05 04:52:23;;;;;;;8.70;2.80;;;;;;;;;;5072492;28;20024;-72
2023/10/05 04:54:57;;;;;;;6.10;1.98;;;;;;;;;;5084849;28;20020;-72
2023/10/05 04:57:35;;;;;;;6.25;1.52;;;;;;;;;;5088091;28;20388;-72
2023/10/05 05:00:48;;;;;;;9.40;2.10;;;;;;;;;;5056913;28;20029;-72
2023/10/05 05:03:16;;;;;;;9.77;1.90;;;;;;;;;;5056708;28;20025;-72
2023/10/05 05:05:53;;;;;;;5.88;1.60;;;;;;;;;;5059408;28;20549;-72
2023/10/05 05:08:19;;;;;;;4.97;1.85;;;;;;;;;;5055743;28;20441;-72
2023/10/05 05:10:44;;;;;;;7.75;1.85;;;;;;;;;;5072638;28;20025;-72
2023/10/05 05:13:09;;;;;;;9.63;2.75;;;;;;;;;;5054673;28;20021;-72
2023/10/05 05:15:38;;;;;;;5.75;1.95;;;;;;;;;;5054451;28;20024;-72
2023/10/05 05:18:04;;;;;;;9.43;2.30;;;;;;;;;;5072609;28;20090;-72
2023/10/05 05:20:29;;;;;;;11.00;2.47;;;;;;;;;;5054004;28;20453;-72
2023/10/05 05:22:54;;;;;;;11.18;3.00;;;;;;;;;;5072557;28;20056;-72
2023/10/05 05:25:20;;;;;;;15.23;2.55;;;;;;;;;;5072943;28;20131;-72
2023/10/05 05:27:45;;;;;;;9.13;2.17;;;;;;;;;;5072669;28;20032;-72
2023/10/05 05:30:23;;;;;;;12.90;2.78;;;;;;;;;;5055239;28;20024;-72
2023/10/05 05:32:49;;;;;;;9.75;2.17;;;;;;;;;;5072537;28;20078;-72
2023/10/05 05:35:16;;;;;;;12.52;2.40;;;;;;;;;;5054003;28;20017;-72
2023/10/05 05:37:42;;;;;;;6.47;1.95;;;;;;;;;;5072472;28;20025;-72
2023/10/05 05:40:12;;;;;;;11.45;2.15;;;;;;;;;;5054632;28;20017;-72
2023/10/05 05:42:37;;;;;;;7.43;1.80;;;;;;;;;;5075715;28;20025;-72
2023/10/05 05:45:11;;;;;;;7.18;2.42;;;;;;;;;;5075509;28;20501;-72
2023/10/05 05:47:36;;;;;;;5.30;2.30;;;;;;;;;;5059544;28;20051;-72
2023/10/05 05:50:03;;;;;;;14.25;3.10;;;;;;;;;;5076054;28;20517;-72
2023/10/05 05:52:28;;;;;;;15.75;3.05;;;;;;;;;;5075439;28;20035;-72
2023/10/05 05:54:54;;;;;;;9.75;2.13;;;;;;;;;;5076010;28;20020;-72
2023/10/05 05:57:20;;;;;;;10.95;2.65;;;;;;;;;;5076695;28;20029;-72
2023/10/05 05:59:46;;;;;;;8.57;3.35;;;;;;;;;;5075230;28;20036;-72
2023/10/05 06:02:11;;;;;;;9.90;1.67;;;;;;;;;;5058024;28;20385;-72
2023/10/05 06:04:41;;;;;;;9.40;2.63;;;;;;;;;;5057860;28;20459;-72
2023/10/05 06:07:11;;;;;;;10.65;2.38;;;;;;;;;;5058255;28;20036;-72
2023/10/05 06:09:38;;;;;;;6.50;2.03;;;;;;;;;;5074191;28;20355;-72
2023/10/05 06:12:05;;;;;;;10.50;2.90;;;;;;;;;;5057723;28;20051;-72
2023/10/05 06:14:34;;;;;;;9.13;2.47;;;;;;;;;;5075515;28;20020;-72
2023/10/05 06:17:00;;;;;;;11.90;2.20;;;;;;;;;;5075866;28;20032;-72
2023/10/05 06:19:26;;;;;;;9.98;3.20;;;;;;;;;;5057509;28;20028;-72
2023/10/05 06:21:52;;;;;;;6.28;1.92;;;;;;;;;;5057087;28;20021;-72
2023/10/05 06:24:17;;;;;;;5.97;2.30;;;;;;;;;;5075377;28;20070;-72
2023/10/05 06:26:45;;;;;;;9.45;2.15;;;;;;;;;;5057479;28;20039;-72
2023/10/05 06:29:10;;;;;;;12.52;3.60;;;;;;;;;;5075309;28;20067;-72
2023/10/05 06:31:38;;;;;;;7.07;2.80;;;;;;;;;;5075225;28;20055;-72
2023/10/05 06:34:10;;;;;;;12.85;2.83;;;;;;;;;;5057282;28;20044;-72
2023/10/05 06:36:37;;;;;;;11.45;3.42;;;;;;;;;;5075304;28;20099;-72
2023/10/05 06:39:04;;;;;;;14.50;3.30;;;;;;;;;;5053584;28;20031;-72
2023/10/05 06:41:30;;;;;;;12.77;3.47;;;;;;;;;;5062682;28;20082;-71
2023/10/05 06:43:57;;;;;;;7.95;2.45;;;;;;;;;;5074258;28;20028;-72
2023/10/05 06:46:26;;;;;;;11.38;3.83;;;;;;;;;;5074393;28;20029;-71
2023/10/05 06:48:52;;;;;;;13.00;2.65;;;;;;;;;;5089696;28;20486;-72
2023/10/05 06:51:27;;;;;;;15.13;3.25;;;;;;;;;;5094845;28;20069;-72
2023/10/05 06:53:53;;;;;;;9.05;2.72;;;;;;;;;;5093277;28;20020;-71
2023/10/05 06:56:22;;;;;;;7.35;2.42;;;;;;;;;;5057674;28;20024;-72
2023/10/05 06:58:47;;;;;;;9.35;2.25;;;;;;;;;;5054556;28;20036;-72
2023/10/05 07:01:14;;;;;;;14.52;2.90;;;;;;;;;;5069006;28;20032;-71
2023/10/05 07:03:39;;;;;;;13.95;2.30;;;;;;;;;;5056796;28;20020;-73
2023/10/05 07:06:05;;;;;;;9.07;3.25;;;;;;;;;;5074393;28;20031;-72
2023/10/05 07:08:33;;;;;;;8.80;2.75;;;;;;;;;;5056397;28;20074;-73
2023/10/05 07:10:59;;;;;;;12.23;3.15;;;;;;;;;;5056362;28;20023;-72
2023/10/05 07:13:24;;;;;;;14.45;2.75;;;;;;;;;;5074348;28;20471;-72
2023/10/05 07:15:50;;;;;;;12.30;2.63;;;;;;;;;;5074108;28;20020;-73
2023/10/05 07:18:18;;;;;;;5.85;2.50;;;;;;;;;;5057078;28;20031;-73
2023/10/05 07:20:43;;;;;;;7.68;2.58;;;;;;;;;;5056722;28;20441;-73
2023/10/05 07:23:09;;;;;;;18.08;3.35;;;;;;;;;;5055811;28;20035;-71
2023/10/05 07:25:34;;;;;;;12.15;2.38;;;;;;;;;;5056656;28;20035;-71
2023/10/05 07:27:59;;;;;;;9.32;2.90;;;;;;;;;;5074170;28;20031;-72
2023/10/05 07:30:25;;;;;;;12.68;2.83;;;;;;;;;;5056281;28;20024;-71
2023/10/05 07:32:50;;;;;;;10.85;3.03;;;;;;;;;;5055562;28;20398;-71
2023/10/05 07:35:15;;;;;;;17.58;2.72;;;;;;;;;;5055837;28;20024;-71
2023/10/05 07:37:41;;;;;;;13.02;2.92;;;;;;;;;;5073845;28;20024;-71
2023/10/05 07:40:10;;;;;;;10.73;2.58;;;;;;;;;;5074458;28;20452;-70
2023/10/05 07:42:37;;;;;;;12.30;2.85;;;;;;;;;;5057646;28;20025;-68
2023/10/05 07:45:07;;;;;;;11.02;2.58;;;;;;;;;;5087415;28;20067;-71
2023/10/05 07:47:32;;;;;;;10.52;3.42;;;;;;;;;;5093764;28;20035;-71
2023/10/05 07:49:57;;;;;;;12.30;3.05;;;;;;;;;;5075765;28;20032;-71
2023/10/05 07:52:22;;;;;;;10.80;2.78;;;;;;;;;;5076055;28;20028;-71
2023/10/05 07:54:48;;;;;;;13.55;3.08;;;;;;;;;;5073804;28;20052;-71
2023/10/05 07:57:14;;;;;;;12.50;3.65;;;;;;;;;;5055032;28;20017;-70
2023/10/05 07:59:43;;;;;;;7.05;3.00;;;;;;;;;;5056073;28;20024;-71
2023/10/05 08:02:10;;;;;;;11.98;3.83;;;;;;;;;;5073933;28;20098;-71
2023/10/05 08:04:36;;;;;;;8.23;2.00;;;;;;;;;;5056049;28;20390;-70
2023/10/05 08:07:02;;;;;;;9.88;2.28;;;;;;;;;;5073458;28;20032;-70
2023/10/05 08:09:28;;;;;;;11.50;2.35;;;;;;;;;;5054634;28;20020;-70
2023/10/05 08:11:59;;;;;;;8.98;2.40;;;;;;;;;;5073346;28;20035;-70
2023/10/05 08:14:25;;;;;;;6.90;1.88;;;;;;;;;;5056368;28;20390;-70
2023/10/05 08:16:51;;;;;;;7.70;2.90;;;;;;;;;;5054872;28;20024;-70
2023/10/05 08:19:19;;;;;;;12.15;3.72;;;;;;;;;;5055307;28;20028;-70
2023/10/05 08:21:45;;;;;;;9.38;3.20;;;;;;;;;;5072869;28;20040;-69
2023/10/05 08:24:11;;;;;;;15.93;3.92;;;;;;;;;;5055257;28;20027;-69
2023/10/05 08:26:39;;;;;;;16.73;4.60;;;;;;;;;;5055045;28;20107;-69
2023/10/05 08:29:06;;;;;;;12.05;3.03;;;;;;;;;;5055731;28;20100;-70
2023/10/05 08:31:32;;;;;;;7.88;3.40;;;;;;;;;;5072494;28;20020;-69
2023/10/05 08:34:00;;;;;;;7.18;2.65;;;;;;;;;;5072866;28;20593;-68
2023/10/05 08:36:25;;;;;;;9.40;2.88;;;;;;;;;;5055018;28;20379;-69
2023/10/05 08:38:54;;;;;;;12.98;3.28;;;;;;;;;;5077400;28;20049;-69
2023/10/05 08:41:35;;;;;;;7.35;2.60;;;;;;;;;;5072900;28;20033;-69
2023/10/05 08:44:10;;;;;;;14.02;3.22;;;;;;;;;;5072849;28;20081;-69
2023/10/05 08:46:43;;;;;;;18.63;4.05;;;;;;;;;;5072352;28;20028;-67
2023/10/05 08:49:10;;;;;;;22.65;2.92;;;;;;;;;;5059749;28;20400;-67
2023/10/05 08:51:37;;;;;;;10.13;3.35;;;;;;;;;;5072596;28;20025;-67
2023/10/05 08:54:09;;;;;;;7.63;1.98;;;;;;;;;;5072240;28;20020;-69
2023/10/05 08:56:35;;;;;;;7.28;4.32;;;;;;;;;;5072638;28;20021;-69
2023/10/05 08:59:06;;;;;;;11.40;4.38;;;;;;;;;;5072930;28;20402;-69
2023/10/05 09:01:33;;;;;;;8.27;2.22;;;;;;;;;;5072576;28;20475;-70
2023/10/05 09:06:43;;;;;;;10.18;2.30;;;;;;;;;;5055682;28;20397;-69
2023/10/05 09:09:13;;;;;;;12.65;2.80;;;;;;;;;;5072563;28;20475;-69
2023/10/05 09:11:39;;;;;;;8.93;3.75;;;;;;;;;;5054710;28;20029;-69
2023/10/05 09:14:12;;;;;;;7.47;2.42;;;;;;;;;;5072950;28;20027;-69
2023/10/05 09:16:41;;;;;;;7.75;2.70;;;;;;;;;;5055727;28;20021;-69
2023/10/05 09:19:17;;;;;;;7.68;2.55;;;;;;;;;;5058661;28;20028;-69
2023/10/05 09:21:45;;;;;;;3.95;2.20;;;;;;;;;;5076347;28;20112;-70
2023/10/05 09:24:25;;;;;;;6.63;2.00;;;;;;;;;;5058008;28;20054;-69
2023/10/05 09:26:55;;;;;;;6.90;1.98;;;;;;;;;;5076163;28;20021;-70
2023/10/05 09:29:30;;;;;;;9.30;2.45;;;;;;;;;;5058721;28;20043;-69
2023/10/05 09:31:58;;;;;;;3.95;2.10;;;;;;;;;;5058434;28;20479;-69
2023/10/05 09:34:44;;;;;;;8.73;3.05;;;;;;;;;;5075805;28;20060;-69
2023/10/05 09:37:10;;;;;;;11.50;2.28;;;;;;;;;;5059027;28;20081;-69
2023/10/05 09:39:43;;;;;;;8.00;2.17;;;;;;;;;;5067092;28;20483;-69
2023/10/05 09:42:25;;;;;;;6.32;2.10;;;;;;;;;;5094794;28;20024;-69
2023/10/05 09:44:58;;;;;;;5.47;2.22;;;;;;;;;;5078593;28;20020;-69
2023/10/05 09:47:25;;;;;;;8.20;2.50;;;;;;;;;;5096348;28;20027;-69
2023/10/05 09:49:53;;;;;;;6.60;2.15;;;;;;;;;;5096290;28;20505;-70
2023/10/05 09:52:19;;;;;;;7.90;2.22;;;;;;;;;;5078158;28;20106;-69
2023/10/05 09:54:47;;;;;;;3.60;2.00;;;;;;;;;;5090032;28;20021;-69
2023/10/05 09:57:16;;;;;;;5.55;2.65;;;;;;;;;;5075273;28;20024;-68
2023/10/05 09:59:44;;;;;;;4.72;1.90;;;;;;;;;;5058021;28;20024;-70
2023/10/05 10:02:14;;;;;;;8.48;2.65;;;;;;;;;;5058346;28;20028;-68
2023/10/05 10:04:40;;;;;;;8.52;1.90;;;;;;;;;;5076059;28;20482;-68
2023/10/05 10:07:15;;;;;;;7.95;2.38;;;;;;;;;;5075741;28;20137;-68
2023/10/05 10:09:42;;;;;;;5.80;2.10;;;;;;;;;;5071163;28;20028;-68
2023/10/05 10:12:10;;;;;;;3.15;1.67;;;;;;;;;;5077697;28;20548;-68
2023/10/05 10:14:41;;;;;;;4.68;1.45;;;;;;;;;;5095829;28;20389;-68
2023/10/05 10:17:10;;;;;;;7.95;1.85;;;;;;;;;;5078489;28;20024;-68
2023/10/05 10:19:45;;;;;;;7.60;2.60;;;;;;;;;;5066107;28;20031;-70
2023/10/05 10:22:12;;;;;;;8.00;2.40;;;;;;;;;;5078672;28;20015;-68
2023/10/05 10:24:38;;;;;;;5.88;2.05;;;;;;;;;;5095331;28;20486;-68
2023/10/05 10:27:07;;;;;;;4.25;1.70;;;;;;;;;;5067853;28;20033;-68
2023/10/05 10:29:46;;;;;;;6.53;1.80;;;;;;;;;;5036034;28;20081;-68
2023/10/05 10:32:18;;;;;;;11.48;3.03;;;;;;;;;;5055048;28;20024;-68
2023/10/05 10:34:50;;;;;;;8.55;2.38;;;;;;;;;;5037647;28;20122;-68
2023/10/05 10:37:36;;;;;;;9.15;2.72;;;;;;;;;;5054654;28;20025;-68
2023/10/05 10:40:11;;;;;;;13.98;2.05;;;;;;;;;;5038761;28;20017;-68
2023/10/05 10:45:36;;;;;;;7.03;1.90;;;;;;;;;;5080044;28;20024;-68
2023/10/05 10:48:08;;;;;;;11.88;2.40;;;;;;;;;;5056706;28;20115;-67
2023/10/05 10:50:37;;;;;;;6.80;2.40;;;;;;;;;;5049380;28;20052;-68
2023/10/05 10:53:16;;;;;;;7.53;2.45;;;;;;;;;;5054638;28;20055;-68
2023/10/05 10:55:46;;;;;;;8.07;2.67;;;;;;;;;;5054660;28;20032;-68
2023/10/05 10:58:13;;;;;;;5.78;1.98;;;;;;;;;;5053824;28;20118;-68
2023/10/05 11:00:54;;;;;;;5.07;1.80;;;;;;;;;;5059388;28;20021;-68
2023/10/05 11:03:24;;;;;;;7.65;2.33;;;;;;;;;;5057026;28;20024;-68
2023/10/05 11:05:54;;;;;;;8.50;2.22;;;;;;;;;;5066137;28;20055;-68
2023/10/05 11:08:20;;;;;;;6.57;1.98;;;;;;;;;;5077183;28;20050;-68
2023/10/05 11:11:09;;;;;;;6.95;2.13;;;;;;;;;;5076611;28;20538;-68
2023/10/05 11:13:43;;;;;;;15.30;2.75;;;;;;;;;;5075858;28;20397;-67
2023/10/05 11:16:09;;;;;;;7.85;2.30;;;;;;;;;;5056315;28;20028;-68
2023/10/05 11:18:38;;;;;;;5.35;2.13;;;;;;;;;;5056530;28;20035;-68
2023/10/05 11:21:13;;;;;;;11.93;2.45;;;;;;;;;;5056765;28;20024;-70
2023/10/05 11:23:48;;;;;;;10.60;2.00;;;;;;;;;;5039872;28;20028;-68
2023/10/05 11:26:17;;;;;;;7.22;3.15;;;;;;;;;;5074215;28;20070;-69
2023/10/05 11:28:48;;;;;;;8.82;2.85;;;;;;;;;;5056552;28;20543;-68
2023/10/05 11:31:14;;;;;;;15.82;2.88;;;;;;;;;;5056720;28;20028;-68
2023/10/05 11:33:41;;;;;;;15.73;2.78;;;;;;;;;;5056317;28;20478;-68
2023/10/05 11:36:17;;;;;;;11.93;2.40;;;;;;;;;;5073440;28;20020;-68
2023/10/05 11:38:43;;;;;;;11.85;2.13;;;;;;;;;;5057943;28;20036;-68
2023/10/05 11:41:09;;;;;;;7.47;3.03;;;;;;;;;;5073372;28;20036;-68
2023/10/05 11:43:34;;;;;;;11.23;2.33;;;;;;;;;;5055724;28;20103;-68
2023/10/05 11:46:17;;;;;;;9.55;1.80;;;;;;;;;;5055804;28;20510;-68
2023/10/05 11:48:50;;;;;;;6.90;2.03;;;;;;;;;;5057842;28;20029;-68
2023/10/05 11:51:19;;;;;;;8.52;2.65;;;;;;;;;;5056483;28;20493;-68
2023/10/05 11:53:45;;;;;;;6.57;2.45;;;;;;;;;;5073684;28;20167;-68
2023/10/05 11:56:11;;;;;;;8.98;2.10;;;;;;;;;;5073515;28;20028;-68
2023/10/05 11:58:37;;;;;;;10.60;1.80;;;;;;;;;;5055604;28;20032;-68
2023/10/05 12:01:03;;;;;;;7.53;1.90;;;;;;;;;;5055147;28;20036;-68
2023/10/05 12:03:30;;;;;;;7.30;2.33;;;;;;;;;;5054907;28;20017;-68
2023/10/05 12:06:00;;;;;;;6.25;2.00;;;;;;;;;;5073375;28;20032;-68
2023/10/05 12:08:28;;;;;;;7.47;1.70;;;;;;;;;;5073639;28;20414;-68
2023/10/05 12:10:54;;;;;;;6.60;1.90;;;;;;;;;;5072435;28;20027;-67
2023/10/05 12:13:22;;;;;;;5.68;1.95;;;;;;;;;;5073261;28;20078;-68
2023/10/05 12:15:51;;;;;;;7.13;2.05;;;;;;;;;;5073028;28;20021;-68
2023/10/05 12:18:16;;;;;;;4.63;1.90;;;;;;;;;;5072634;28;20470;-68
2023/10/05 12:20:42;;;;;;;11.90;1.80;;;;;;;;;;5055251;28;20032;-68
2023/10/05 12:23:07;;;;;;;13.93;3.50;;;;;;;;;;5055264;28;20021;-68
2023/10/05 12:25:33;;;;;;;7.38;2.22;;;;;;;;;;5072966;28;20020;-69
2023/10/05 12:27:59;;;;;;;15.98;2.42;;;;;;;;;;5072966;28;20025;-68
2023/10/05 12:30:24;;;;;;;5.47;1.75;;;;;;;;;;5072801;28;20396;-68
2023/10/05 12:32:51;;;;;;;5.90;1.92;;;;;;;;;;5054722;28;20032;-67
2023/10/05 12:35:18;;;;;;;9.65;2.42;;;;;;;;;;5038716;28;20028;-68
2023/10/05 12:37:44;;;;;;;12.43;2.80;;;;;;;;;;5072938;28;20036;-68
2023/10/05 12:40:26;;;;;;;10.93;2.10;;;;;;;;;;5054856;28;20024;-68
2023/10/05 12:42:54;;;;;;;9.30;2.83;;;;;;;;;;5057086;28;20024;-68
2023/10/05 12:45:23;;;;;;;7.10;1.70;;;;;;;;;;5056330;28;20395;-68
2023/10/05 12:47:52;;;;;;;8.63;2.47;;;;;;;;;;5046431;28;20032;-68
2023/10/05 12:50:19;;;;;;;10.05;1.85;;;;;;;;;;5050876;28;20487;-68
2023/10/05 12:52:44;;;;;;;9.93;1.88;;;;;;;;;;5052457;28;20103;-68
2023/10/05 12:55:10;;;;;;;11.55;2.50;;;;;;;;;;5052664;28;20506;-68
2023/10/05 12:57:36;;;;;;;7.15;2.00;;;;;;;;;;5034451;28;20025;-68
2023/10/05 13:00:17;;;;;;;9.60;1.80;;;;;;;;;;5052726;28;20036;-68
2023/10/05 13:02:53;;;;;;;15.00;2.42;;;;;;;;;;5051915;28;20128;-68
2023/10/05 13:05:21;;;;;;;11.05;2.05;;;;;;;;;;5057261;28;20028;-68
2023/10/05 13:07:49;;;;;;;7.55;2.30;;;;;;;;;;5092489;28;20034;-68
2023/10/05 13:10:21;;;;;;;6.70;1.80;;;;;;;;;;5061655;28;20032;-68
2023/10/05 13:12:51;;;;;;;10.75;2.13;;;;;;;;;;5054938;28;20025;-68
2023/10/05 13:15:19;;;;;;;8.73;1.85;;;;;;;;;;5072163;28;20024;-68
2023/10/05 13:17:46;;;;;;;8.95;2.00;;;;;;;;;;5072140;28;20031;-68
2023/10/05 13:20:14;;;;;;;6.93;2.95;;;;;;;;;;5071977;28;20513;-68
2023/10/05 13:22:44;;;;;;;6.82;2.55;;;;;;;;;;5071780;28;20020;-68
2023/10/05 13:25:09;;;;;;;5.32;1.98;;;;;;;;;;5072525;28;20035;-68
2023/10/05 13:27:36;;;;;;;9.13;1.92;;;;;;;;;;5063158;28;20398;-68
2023/10/05 13:30:03;;;;;;;9.10;2.20;;;;;;;;;;5051699;28;20044;-68
2023/10/05 13:32:28;;;;;;;5.43;2.45;;;;;;;;;;5052500;28;20021;-68
2023/10/05 13:34:53;;;;;;;6.43;1.98;;;;;;;;;;5072285;28;20394;-68
2023/10/05 13:37:19;;;;;;;5.88;1.77;;;;;;;;;;5072080;28;20386;-68
2023/10/05 13:39:45;;;;;;;7.30;2.00;;;;;;;;;;5080326;28;20036;-68
2023/10/05 13:42:11;;;;;;;6.90;1.88;;;;;;;;;;5092309;28;20028;-68
2023/10/05 13:44:36;;;;;;;5.78;2.15;;;;;;;;;;5083408;28;20025;-68
2023/10/05 13:47:02;;;;;;;6.93;2.00;;;;;;;;;;5053988;28;20092;-67
2023/10/05 13:49:30;;;;;;;9.70;2.25;;;;;;;;;;5046890;28;20056;-68
2023/10/05 13:52:05;;;;;;;6.95;2.15;;;;;;;;;;5034188;28;20100;-68
2023/10/05 13:54:30;;;;;;;7.57;1.75;;;;;;;;;;5043836;28;20028;-69
2023/10/05 13:56:56;;;;;;;3.47;1.92;;;;;;;;;;5062927;28;20497;-70
2023/10/05 13:59:21;;;;;;;6.30;1.65;;;;;;;;;;5066210;28;20078;-69
2023/10/05 14:01:47;;;;;;;4.15;1.70;;;;;;;;;;5060228;28;20024;-69
2023/10/05 14:04:15;;;;;;;9.25;1.65;;;;;;;;;;5045704;28;20033;-69
2023/10/05 14:06:41;;;;;;;7.40;2.08;;;;;;;;;;5047272;28;20022;-69
2023/10/05 14:09:07;;;;;;;7.38;2.13;;;;;;;;;;5049032;28;20032;-69
2023/10/05 14:11:33;;;;;;;11.30;2.50;;;;;;;;;;5072592;28;20033;-69
2023/10/05 14:13:59;;;;;;;14.50;2.08;;;;;;;;;;5054591;28;20020;-69
2023/10/05 14:16:25;;;;;;;7.03;2.00;;;;;;;;;;5069689;28;20051;-69
2023/10/05 14:18:50;;;;;;;7.47;1.92;;;;;;;;;;5052619;28;20059;-69
2023/10/05 14:21:16;;;;;;;5.65;2.00;;;;;;;;;;5065759;28;20503;-68
2023/10/05 14:23:43;;;;;;;8.15;2.00;;;;;;;;;;5050548;28;20035;-69
2023/10/05 14:26:10;;;;;;;7.03;1.77;;;;;;;;;;5051469;28;20025;-68
2023/10/05 14:28:36;;;;;;;9.02;1.70;;;;;;;;;;5046215;28;20070;-69
2023/10/05 14:31:03;;;;;;;10.27;1.88;;;;;;;;;;5045265;28;20032;-69
2023/10/05 14:33:29;;;;;;;11.88;2.13;;;;;;;;;;5070912;28;20028;-69
2023/10/05 14:35:57;;;;;;;9.00;1.42;;;;;;;;;;5062655;28;20387;-69
2023/10/05 14:38:24;;;;;;;6.18;2.10;;;;;;;;;;5066951;28;20052;-69
2023/10/05 14:40:50;;;;;;;12.32;2.83;;;;;;;;;;5064487;28;20028;-69
2023/10/05 14:43:30;;;;;;;5.15;2.00;;;;;;;;;;5063200;28;22026;-68
2023/10/05 14:46:05;;;;;;;7.20;2.10;;;;;;;;;;5068006;28;20020;-69
2023/10/05 14:48:30;;;;;;;5.97;2.33;;;;;;;;;;5056111;28;20024;-69
2023/10/05 14:51:00;;;;;;;9.93;2.58;;;;;;;;;;5050713;28;20017;-69
2023/10/05 14:53:26;;;;;;;8.35;3.08;;;;;;;;;;5054054;28;20027;-69
2023/10/05 14:55:51;;;;;;;10.90;3.20;;;;;;;;;;5050583;28;20020;-69
2023/10/05 14:58:18;;;;;;;20.50;6.50;;;;;;;;;;5049101;28;20050;-67
2023/10/05 15:00:43;;;;;;;27.75;12.30;;;;;;;;;;5082009;28;20028;-67
2023/10/05 15:03:08;;;;;;;16.10;5.35;;;;;;;;;;5075198;28;20441;-67
2023/10/05 15:05:37;;;;;;;21.15;6.38;;;;;;;;;;5063135;28;20100;-67
2023/10/05 15:08:03;;;;;;;15.60;7.07;;;;;;;;;;5073518;28;20028;-67